createdAt,value
2018-04-15T00:00:34.029Z,46.83
2018-04-15T00:03:03.366Z,42.20
2018-04-15T00:05:32.632Z,46.57
2018-04-15T00:08:01.913Z,44.63
2018-04-15T00:10:31.164Z,45.10
2018-04-15T00:13:00.440Z,48.67
2018-04-15T00:15:29.686Z,43.87
2018-04-15T00:17:59.693Z,47.37
2018-04-15T00:20:29.721Z,45.23
2018-04-15T00:22:59.750Z,44.20
2018-04-15T00:25:28.977Z,45.40
2018-04-15T00:27:58.285Z,44.50
2018-04-15T00:30:27.527Z,44.20
2018-04-15T00:32:57.511Z,44.83
2018-04-15T00:35:26.794Z,47.20
2018-04-15T00:37:56.010Z,46.90
2018-04-15T00:40:25.290Z,46.40
2018-04-15T00:42:54.584Z,44.50
2018-04-15T00:45:23.818Z,44.83
2018-04-15T00:47:53.053Z,43.23
2018-04-15T00:50:22.366Z,45.70
2018-04-15T00:52:51.608Z,47.70
2018-04-15T00:55:20.841Z,45.37
2018-04-15T00:57:50.875Z,42.77
2018-04-15T01:00:20.187Z,44.53
2018-04-15T01:02:49.573Z,43.03
2018-04-15T01:05:18.734Z,45.50
2018-04-15T01:07:49.483Z,43.93
2018-04-15T01:10:19.521Z,48.10
2018-04-15T01:12:48.783Z,45.83
2018-04-15T01:15:17.987Z,47.07
2018-04-15T01:17:47.233Z,47.00
2018-04-15T01:20:16.454Z,46.70
2018-04-15T01:22:45.701Z,48.20
2018-04-15T01:25:14.971Z,48.23
2018-04-15T01:27:44.215Z,46.53
2018-04-15T01:30:13.447Z,48.50
2018-04-15T01:32:42.689Z,47.00
2018-04-15T01:35:12.690Z,48.00
2018-04-15T01:37:41.985Z,49.53
2018-04-15T01:40:11.980Z,48.43
2018-04-15T01:42:41.233Z,47.20
2018-04-15T01:45:10.443Z,46.47
2018-04-15T01:47:39.913Z,46.87
2018-04-15T01:50:09.923Z,45.80
2018-04-15T01:52:39.173Z,44.43
2018-04-15T01:55:08.378Z,46.03
2018-04-15T01:57:37.612Z,47.97
2018-04-15T02:00:06.856Z,47.00
2018-04-15T02:02:36.077Z,47.60
2018-04-15T02:05:05.323Z,47.67
2018-04-15T02:07:34.564Z,48.27
2018-04-15T02:10:03.822Z,49.43
2018-04-15T02:12:33.103Z,48.27
2018-04-15T02:15:02.319Z,48.97
2018-04-15T02:17:31.653Z,49.97
2018-04-15T02:20:00.887Z,50.70
2018-04-15T02:22:30.121Z,51.30
2018-04-15T02:24:59.361Z,49.23
2018-04-15T02:27:28.682Z,52.00
2018-04-15T02:29:58.790Z,49.50
2018-04-15T02:32:28.083Z,53.10
2018-04-15T02:34:57.430Z,49.10
2018-04-15T02:37:26.673Z,51.63
2018-04-15T02:39:55.982Z,50.70
2018-04-15T02:42:25.339Z,49.43
2018-04-15T02:44:55.515Z,48.43
2018-04-15T02:47:25.543Z,53.33
2018-04-15T02:49:54.773Z,51.50
2018-04-15T02:52:24.010Z,53.23
2018-04-15T02:54:53.277Z,52.10
2018-04-15T02:57:22.473Z,49.30
2018-04-15T02:59:51.717Z,53.37
2018-04-15T03:02:21.169Z,55.50
2018-04-15T03:04:50.417Z,53.23
2018-04-15T03:07:19.649Z,54.27
2018-04-15T03:09:49.637Z,56.10
2018-04-15T03:12:18.924Z,56.30
2018-04-15T03:14:48.145Z,50.47
2018-04-15T03:17:18.184Z,51.60
2018-04-15T03:22:23.661Z,50.03
2018-04-15T03:24:52.901Z,52.73
2018-04-15T03:27:22.120Z,53.80
2018-04-15T03:29:52.139Z,55.97
2018-04-15T03:32:22.160Z,53.30
2018-04-15T03:34:52.241Z,53.47
2018-04-15T03:37:21.554Z,51.60
2018-04-15T03:39:50.783Z,53.90
2018-04-15T03:42:20.774Z,54.70
2018-04-15T03:44:50.257Z,53.07
2018-04-15T03:47:19.485Z,51.77
2018-04-15T03:49:48.766Z,53.47
2018-04-15T03:52:18.038Z,54.10
2018-04-15T03:54:47.271Z,52.63
2018-04-15T03:57:16.488Z,51.07
2018-04-15T03:59:46.488Z,54.97
2018-04-15T04:02:15.734Z,52.00
2018-04-15T04:04:44.965Z,51.97
2018-04-15T04:07:14.190Z,52.40
2018-04-15T04:09:43.422Z,50.00
2018-04-15T04:12:12.646Z,51.10
2018-04-15T04:14:41.892Z,50.43
2018-04-15T04:17:11.986Z,50.40
2018-04-15T04:19:59.125Z,47.37
2018-04-15T04:22:45.997Z,48.70
2018-04-15T04:38:53.841Z,33.87
2018-04-15T04:41:23.817Z,34.17
2018-04-15T04:43:53.059Z,31.87
2018-04-15T04:46:23.077Z,32.60
2018-04-15T04:48:52.321Z,32.60
2018-04-15T04:51:21.571Z,30.83
2018-04-15T04:53:50.790Z,33.10
2018-04-15T04:56:20.069Z,31.20
2018-04-15T04:58:49.307Z,29.70
2018-04-15T05:01:18.527Z,29.23
2018-04-15T05:03:47.764Z,28.27
2018-04-15T05:06:17.779Z,28.77
2018-04-15T05:08:47.760Z,28.43
2018-04-15T05:11:16.968Z,28.60
2018-04-15T05:13:46.962Z,26.00
2018-04-15T05:16:16.188Z,24.47
2018-04-15T05:18:46.170Z,24.57
2018-04-15T05:21:15.407Z,24.17
2018-04-15T05:23:45.421Z,22.00
2018-04-15T05:26:15.422Z,20.93
2018-04-15T05:28:44.640Z,22.47
2018-04-15T05:31:14.617Z,22.47
2018-04-15T05:33:43.846Z,23.00
2018-04-15T05:36:13.893Z,21.00
2018-04-15T05:38:43.130Z,19.87
2018-04-15T05:41:12.458Z,20.90
2018-04-15T05:43:41.680Z,22.87
2018-04-15T05:46:10.916Z,23.00
2018-04-15T05:48:40.158Z,22.23
2018-04-15T05:51:10.152Z,20.00
2018-04-15T05:53:39.413Z,21.70
2018-04-15T05:56:08.682Z,21.57
2018-04-15T05:58:38.710Z,21.00
2018-04-15T06:01:08.677Z,20.93
2018-04-15T06:03:37.906Z,18.70
2018-04-15T06:06:07.894Z,19.13
2018-04-15T06:08:37.112Z,17.20
2018-04-15T06:11:07.089Z,16.90
2018-04-15T06:13:36.333Z,17.53
2018-04-15T06:16:06.392Z,15.60
2018-04-15T06:18:35.630Z,15.60
2018-04-15T06:21:04.833Z,15.87
2018-04-15T06:23:34.849Z,13.83
2018-04-15T06:26:04.058Z,13.13
2018-04-15T06:28:34.061Z,13.30
2018-04-15T06:31:03.354Z,13.37
2018-04-15T06:33:32.673Z,11.93
2018-04-15T06:36:01.928Z,12.10
2018-04-15T06:38:31.156Z,10.30
2018-04-15T06:41:00.413Z,12.10
2018-04-15T06:43:29.615Z,12.57
2018-04-15T06:45:58.843Z,11.10
2018-04-15T06:48:28.109Z,10.63
2018-04-15T06:50:58.181Z,11.50
2018-04-15T06:53:28.210Z,11.00
2018-04-15T06:55:57.490Z,9.90
2018-04-15T06:58:26.684Z,10.93
2018-04-15T07:00:56.057Z,10.23
2018-04-15T07:03:25.282Z,10.60
2018-04-15T07:05:55.278Z,10.10
2018-04-15T07:08:24.593Z,7.60
2018-04-15T07:10:53.904Z,9.20
2018-04-15T07:13:23.873Z,8.80
2018-04-15T07:15:53.133Z,8.97
2018-04-15T07:18:22.369Z,9.40
2018-04-15T07:20:51.608Z,7.37
2018-04-15T07:23:20.845Z,7.80
2018-04-15T07:25:50.170Z,8.73
2018-04-15T07:28:19.412Z,7.40
2018-04-15T07:30:49.432Z,7.27
2018-04-15T07:33:19.453Z,7.00
2018-04-15T07:35:49.465Z,6.53
2018-04-15T07:38:19.426Z,5.43
2018-04-15T07:40:48.656Z,6.33
2018-04-15T07:43:17.893Z,6.00
2018-04-15T07:45:47.887Z,5.90
2018-04-15T07:48:17.856Z,6.10
2018-04-15T07:50:47.103Z,5.43
2018-04-15T07:53:16.365Z,5.27
2018-04-15T07:55:45.686Z,4.80
2018-04-15T07:58:14.873Z,4.97
2018-04-15T08:00:46.773Z,5.77
2018-04-15T08:03:16.358Z,4.63
2018-04-15T08:05:46.359Z,4.83
2018-04-15T08:08:15.656Z,4.60
2018-04-15T08:10:44.914Z,4.13
2018-04-15T08:13:14.210Z,4.40
2018-04-15T08:15:44.290Z,4.30
2018-04-15T08:18:14.316Z,3.70
2018-04-15T08:20:43.819Z,4.53
2018-04-15T08:23:13.969Z,3.83
2018-04-15T08:25:43.188Z,2.60
2018-04-15T08:28:12.448Z,4.10
2018-04-15T08:30:41.693Z,2.80
2018-04-15T08:33:10.946Z,3.33
2018-04-15T08:35:40.221Z,2.87
2018-04-15T08:38:10.244Z,3.40
2018-04-15T08:40:40.345Z,2.90
2018-04-15T08:43:09.596Z,3.30
2018-04-15T08:45:38.824Z,2.60
2018-04-15T08:48:08.197Z,3.53
2018-04-15T08:50:38.242Z,2.73
2018-04-15T08:53:07.518Z,2.70
2018-04-15T08:55:36.723Z,2.67
2018-04-15T08:58:05.990Z,3.20
2018-04-15T09:00:35.207Z,3.30
2018-04-15T09:03:04.429Z,3.23
2018-04-15T09:05:33.665Z,3.20
2018-04-15T09:08:02.873Z,2.87
2018-04-15T09:10:32.854Z,2.40
2018-04-15T09:13:02.937Z,2.60
2018-04-15T09:15:32.161Z,2.50
2018-04-15T09:18:01.394Z,2.53
2018-04-15T09:20:30.666Z,2.97
2018-04-15T09:23:00.034Z,3.00
2018-04-15T09:25:29.269Z,2.13
2018-04-15T09:27:58.513Z,2.60
2018-04-15T09:30:27.723Z,2.23
2018-04-15T09:32:56.955Z,2.50
2018-04-15T09:35:26.180Z,1.87
2018-04-15T09:37:56.171Z,1.87
2018-04-15T09:40:25.435Z,1.83
2018-04-15T09:42:54.733Z,1.80
2018-04-15T09:45:24.039Z,2.20
2018-04-15T09:47:54.396Z,2.10
2018-04-15T09:50:23.641Z,1.80
2018-04-15T09:52:52.825Z,1.83
2018-04-15T09:55:22.854Z,1.53
2018-04-15T09:57:52.136Z,1.17
2018-04-15T10:00:22.141Z,0.90
2018-04-15T10:02:52.156Z,1.20
2018-04-15T10:05:22.164Z,1.40
2018-04-15T10:07:51.423Z,1.20
2018-04-15T10:10:20.631Z,1.30
2018-04-15T10:12:49.863Z,1.10
2018-04-15T10:15:19.850Z,1.10
2018-04-15T10:17:49.076Z,1.20
2018-04-15T10:20:19.137Z,1.00
2018-04-15T10:22:48.386Z,1.20
2018-04-15T10:25:17.633Z,0.90
2018-04-15T10:27:46.896Z,1.00
2018-04-15T10:30:16.129Z,1.40
2018-04-15T10:32:45.492Z,1.00
2018-04-15T10:35:14.673Z,1.07
2018-04-15T10:37:44.711Z,1.07
2018-04-15T10:40:14.760Z,1.10
2018-04-15T10:42:43.951Z,1.00
2018-04-15T10:45:13.257Z,0.93
2018-04-15T10:47:42.460Z,1.70
2018-04-15T10:50:11.744Z,1.00
2018-04-15T10:52:40.970Z,1.00
2018-04-15T10:55:10.213Z,0.90
2018-04-15T10:57:40.275Z,1.20
2018-04-15T11:00:09.525Z,0.93
2018-04-15T11:02:38.758Z,1.10
2018-04-15T11:05:07.999Z,0.90
2018-04-15T11:07:37.254Z,1.00
2018-04-15T11:10:06.631Z,0.80
2018-04-15T11:12:35.857Z,0.90
2018-04-15T11:15:05.117Z,0.80
2018-04-15T11:17:35.178Z,1.00
2018-04-15T11:20:04.413Z,1.20
2018-04-15T11:22:34.370Z,1.00
2018-04-15T11:25:03.623Z,1.27
2018-04-15T11:27:32.885Z,1.37
2018-04-15T11:30:02.119Z,1.40
2018-04-15T11:32:31.403Z,1.90
2018-04-15T11:35:00.585Z,1.00
2018-04-15T11:37:29.818Z,1.00
2018-04-15T11:39:59.037Z,0.80
2018-04-15T11:42:29.049Z,0.70
2018-04-15T11:44:58.299Z,0.80
2018-04-15T11:47:27.555Z,1.00
2018-04-15T11:49:56.764Z,1.10
2018-04-15T11:52:26.855Z,1.00
2018-04-15T11:54:56.204Z,0.70
2018-04-15T11:57:25.410Z,0.90
2018-04-15T11:59:54.659Z,1.00
2018-04-15T12:02:23.916Z,1.00
2018-04-15T12:04:53.168Z,1.20
2018-04-15T12:07:22.393Z,0.90
2018-04-15T12:09:51.602Z,0.90
2018-04-15T12:12:20.806Z,1.00
2018-04-15T12:14:50.058Z,0.83
2018-04-15T12:17:20.054Z,0.90
2018-04-15T12:19:49.308Z,0.80
2018-04-15T12:22:18.551Z,0.90
2018-04-15T12:24:47.805Z,1.00
2018-04-15T12:27:17.051Z,0.80
2018-04-15T12:29:47.057Z,0.90
2018-04-15T12:32:16.293Z,0.90
2018-04-15T12:34:45.556Z,1.10
2018-04-15T12:37:14.772Z,1.10
2018-04-15T12:39:44.812Z,1.00
2018-04-15T12:42:14.807Z,1.20
2018-04-15T12:44:44.826Z,0.97
2018-04-15T12:47:14.044Z,0.73
2018-04-15T12:49:43.312Z,1.17
2018-04-15T12:52:12.561Z,1.20
2018-04-15T12:54:41.766Z,1.30
2018-04-15T12:57:11.032Z,0.90
2018-04-15T12:59:40.274Z,1.30
2018-04-15T13:02:09.530Z,1.30
2018-04-15T13:04:38.793Z,1.27
2018-04-15T13:07:08.093Z,0.93
2018-04-15T13:09:37.336Z,1.00
2018-04-15T13:12:06.617Z,0.90
2018-04-15T13:14:36.616Z,1.27
2018-04-15T13:17:06.710Z,1.13
2018-04-15T13:19:35.909Z,1.23
2018-04-15T13:22:05.155Z,1.33
2018-04-15T13:24:34.381Z,1.30
2018-04-15T13:27:03.631Z,1.60
2018-04-15T13:29:33.634Z,1.70
2018-04-15T13:32:02.876Z,18.20
2018-04-15T13:34:32.165Z,9.53
2018-04-15T13:37:01.461Z,36.10
2018-04-15T13:39:31.462Z,56.83
2018-04-15T13:42:00.700Z,10.03
2018-04-15T13:44:29.977Z,7.13
2018-04-15T13:46:59.970Z,11.83
2018-04-15T13:49:29.211Z,3.03
2018-04-15T13:51:58.424Z,1.97
2018-04-15T13:54:27.763Z,3.30
2018-04-15T13:56:56.923Z,2.07
2018-04-15T13:59:26.128Z,1.30
2018-04-15T14:01:55.393Z,1.50
2018-04-15T14:04:24.665Z,1.30
2018-04-15T14:06:54.686Z,2.10
2018-04-15T14:09:24.817Z,1.50
2018-04-15T14:11:54.122Z,1.43
2018-04-15T14:14:23.323Z,1.40
2018-04-15T14:16:53.317Z,1.87
2018-04-15T14:19:22.592Z,1.37
2018-04-15T14:21:51.861Z,1.23
2018-04-15T14:24:21.070Z,1.63
2018-04-15T14:26:50.352Z,1.20
2018-04-15T14:29:19.634Z,1.20
2018-04-15T14:31:48.887Z,1.20
2018-04-15T14:34:18.169Z,1.33
2018-04-15T14:36:47.369Z,1.50
2018-04-15T14:39:16.669Z,1.70
2018-04-15T14:41:45.921Z,1.30
2018-04-15T14:44:15.163Z,1.30
2018-04-15T14:46:44.399Z,1.50
2018-04-15T14:49:14.388Z,1.10
2018-04-15T14:51:43.663Z,1.57
2018-04-15T14:54:12.907Z,1.50
2018-04-15T14:56:42.137Z,1.10
2018-04-15T14:59:11.402Z,1.30
2018-04-15T15:01:40.647Z,1.20
2018-04-15T15:04:09.873Z,1.47
2018-04-15T15:06:39.135Z,1.33
2018-04-15T15:09:09.098Z,1.63
2018-04-15T15:11:38.349Z,1.70
2018-04-15T15:14:07.605Z,1.40
2018-04-15T15:16:36.826Z,1.43
2018-04-15T15:19:06.059Z,1.60
2018-04-15T15:21:36.219Z,1.57
2018-04-15T15:24:05.462Z,1.63
2018-04-15T15:26:34.705Z,1.67
2018-04-15T15:29:04.743Z,1.73
2018-04-15T15:31:34.978Z,1.30
2018-04-15T15:34:05.086Z,1.63
2018-04-15T15:36:35.077Z,1.73
2018-04-15T15:39:04.325Z,1.97
2018-04-15T15:41:33.556Z,1.93
2018-04-15T15:44:02.823Z,2.07
2018-04-15T15:46:32.042Z,1.50
2018-04-15T15:49:01.280Z,1.50
2018-04-15T15:51:31.348Z,1.70
2018-04-15T15:54:00.703Z,1.50
2018-04-15T15:56:30.752Z,1.80
2018-04-15T15:59:00.003Z,1.37
2018-04-15T16:01:29.277Z,1.50
2018-04-15T16:03:58.518Z,1.80
2018-04-15T16:06:28.539Z,1.60
2018-04-15T16:08:57.745Z,1.50
2018-04-15T16:11:26.987Z,1.30
2018-04-15T16:13:56.227Z,1.33
2018-04-15T16:16:26.744Z,2.50
2018-04-15T16:18:56.759Z,3.60
2018-04-15T16:21:25.991Z,1.47
2018-04-15T16:23:55.270Z,3.47
2018-04-15T16:26:25.284Z,3.20
2018-04-15T16:28:55.284Z,2.97
2018-04-15T16:31:24.610Z,1.30
2018-04-15T16:33:54.587Z,1.50
2018-04-15T16:36:24.648Z,1.67
2018-04-15T16:38:53.860Z,1.83
2018-04-15T16:41:23.110Z,1.63
2018-04-15T16:43:52.391Z,1.60
2018-04-15T16:46:21.627Z,1.27
2018-04-15T16:48:50.857Z,1.80
2018-04-15T16:51:20.180Z,1.83
2018-04-15T16:53:49.387Z,1.40
2018-04-15T16:56:18.656Z,1.37
2018-04-15T16:58:47.847Z,1.57
2018-04-15T17:01:17.077Z,1.17
2018-04-15T17:03:46.298Z,1.20
2018-04-15T17:06:16.279Z,2.07
2018-04-15T17:08:45.523Z,1.50
2018-04-15T17:11:15.521Z,2.13
2018-04-15T17:13:44.757Z,1.87
2018-04-15T17:16:13.999Z,1.40
2018-04-15T17:18:43.228Z,3.10
2018-04-15T17:21:13.231Z,1.90
2018-04-15T17:23:42.472Z,2.17
2018-04-15T17:26:11.710Z,2.40
2018-04-15T17:28:40.950Z,2.00
2018-04-15T17:31:10.956Z,2.03
2018-04-15T17:33:40.966Z,2.80
2018-04-15T17:36:10.211Z,2.77
2018-04-15T17:38:39.458Z,2.70
2018-04-15T17:41:08.695Z,2.53
2018-04-15T17:43:38.007Z,2.00
2018-04-15T17:46:07.982Z,1.77
2018-04-15T17:48:38.016Z,2.30
2018-04-15T17:51:08.008Z,2.70
2018-04-15T17:53:37.272Z,2.83
2018-04-15T17:56:06.499Z,2.70
2018-04-15T17:58:35.765Z,2.20
2018-04-15T18:01:05.009Z,2.43
2018-04-15T18:03:34.991Z,2.63
2018-04-15T18:06:04.240Z,2.53
2018-04-15T18:08:33.470Z,2.47
2018-04-15T18:11:02.713Z,3.00
2018-04-15T18:13:32.045Z,2.13
2018-04-15T18:16:01.282Z,2.90
2018-04-15T18:18:30.536Z,2.50
2018-04-15T18:20:59.783Z,1.90
2018-04-15T18:23:29.022Z,2.30
2018-04-15T18:25:59.039Z,2.20
2018-04-15T18:28:28.420Z,2.57
2018-04-15T18:30:57.707Z,2.50
2018-04-15T18:33:26.928Z,2.37
2018-04-15T18:35:56.956Z,2.60
2018-04-15T18:38:26.240Z,2.73
2018-04-15T18:40:56.260Z,2.47
2018-04-15T18:43:25.537Z,2.50
2018-04-15T18:45:54.784Z,2.73
2018-04-15T18:48:23.998Z,3.00
2018-04-15T18:50:53.251Z,2.33
2018-04-15T19:06:23.314Z,3.30
2018-04-15T19:08:52.589Z,2.63
2018-04-15T19:11:21.851Z,2.63
2018-04-15T19:13:51.855Z,3.30
2018-04-15T19:16:21.103Z,3.10
2018-04-15T19:18:50.384Z,2.90
2018-04-15T19:21:19.687Z,3.07
2018-04-15T19:23:49.691Z,2.73
2018-04-15T19:26:19.841Z,3.17
2018-04-15T19:28:49.070Z,3.93
2018-04-15T19:31:18.370Z,3.60
2018-04-15T19:33:48.325Z,5.03
2018-04-15T19:36:17.620Z,4.97
2018-04-15T19:38:46.926Z,4.13
2018-04-15T19:41:17.029Z,4.40
2018-04-15T19:43:47.054Z,5.10
2018-04-15T19:46:17.063Z,4.87
2018-04-15T19:48:47.510Z,4.67
2018-04-15T19:51:17.137Z,3.23
2018-04-15T19:53:46.366Z,3.10
2018-04-15T19:56:15.631Z,6.13
2018-04-15T19:58:44.891Z,2.83
2018-04-15T20:01:14.944Z,2.13
2018-04-15T20:03:44.150Z,2.50
2018-04-15T20:06:13.375Z,1.90
2018-04-15T20:08:42.635Z,2.00
2018-04-15T20:11:11.883Z,3.50
2018-04-15T20:13:41.203Z,2.50
2018-04-15T20:16:10.428Z,2.80
2018-04-15T20:18:39.675Z,2.70
2018-04-15T20:21:08.914Z,2.60
2018-04-15T20:23:38.157Z,2.60
2018-04-15T20:26:07.418Z,2.00
2018-04-15T20:28:37.415Z,2.20
2018-04-15T20:31:07.408Z,2.50
2018-04-15T20:33:36.679Z,2.77
2018-04-15T20:36:05.890Z,2.70
2018-04-15T20:38:35.151Z,2.50
2018-04-15T20:41:04.413Z,2.70
2018-04-15T20:43:33.654Z,2.60
2018-04-15T20:46:02.892Z,2.33
2018-04-15T20:48:32.954Z,3.03
2018-04-15T20:51:02.195Z,2.47
2018-04-15T20:53:31.415Z,2.63
2018-04-15T20:56:01.430Z,2.57
2018-04-15T20:58:30.746Z,2.60
2018-04-15T21:01:00.751Z,2.73
2018-04-15T21:03:29.987Z,2.23
2018-04-15T21:05:59.658Z,2.30
2018-04-15T21:08:28.958Z,2.80
2018-04-15T21:10:58.164Z,2.60
2018-04-15T21:13:28.170Z,2.97
2018-04-15T21:15:57.447Z,2.50
2018-04-15T21:18:26.985Z,2.20
2018-04-15T21:20:56.976Z,2.07
2018-04-15T21:23:26.223Z,2.70
2018-04-15T21:25:55.437Z,2.40
2018-04-15T21:28:24.651Z,2.80
2018-04-15T21:30:53.913Z,2.70
2018-04-15T21:33:23.161Z,3.13
2018-04-15T21:35:52.426Z,2.67
2018-04-15T21:38:21.658Z,2.83
2018-04-15T21:40:50.853Z,3.37
2018-04-15T21:43:20.066Z,2.80
2018-04-15T21:45:49.324Z,2.43
2018-04-15T21:48:18.516Z,2.20
2018-04-15T21:50:47.750Z,2.43
2018-04-15T21:53:16.941Z,2.80
2018-04-15T21:55:46.159Z,2.47
2018-04-15T21:58:15.365Z,2.50
2018-04-15T22:00:45.369Z,2.80
2018-04-15T22:03:14.566Z,2.63
2018-04-15T22:05:43.805Z,2.60
2018-04-15T22:08:13.022Z,2.70
2018-04-15T22:10:42.269Z,2.70
2018-04-15T22:13:12.283Z,2.63
2018-04-15T22:15:42.273Z,2.80
2018-04-15T22:18:12.409Z,2.30
2018-04-15T22:20:41.638Z,2.43
2018-04-15T22:23:10.942Z,2.80
2018-04-15T22:25:40.190Z,2.60
2018-04-15T22:28:09.419Z,2.97
2018-04-15T22:30:39.419Z,3.00
2018-04-15T22:33:09.438Z,2.50
2018-04-15T22:35:38.640Z,2.70
2018-04-15T22:38:07.869Z,4.10
2018-04-15T22:40:37.081Z,3.23
2018-04-15T22:43:06.332Z,3.00
2018-04-15T22:45:36.309Z,3.33
2018-04-15T22:48:05.605Z,3.00
2018-04-15T22:50:37.830Z,2.70
2018-04-15T22:53:07.081Z,3.63
2018-04-15T22:55:36.269Z,3.53
2018-04-15T22:58:05.489Z,3.20
2018-04-15T23:00:34.712Z,3.47
2018-04-15T23:03:04.697Z,3.57
2018-04-15T23:05:33.934Z,3.83
2018-04-15T23:08:03.939Z,3.90
2018-04-15T23:10:33.929Z,3.97
2018-04-15T23:13:03.175Z,4.30
2018-04-15T23:15:32.397Z,4.23
2018-04-15T23:18:01.612Z,4.27
2018-04-15T23:20:30.817Z,4.53
2018-04-15T23:23:00.022Z,3.60
2018-04-15T23:25:29.261Z,4.57
2018-04-15T23:27:59.337Z,4.27
2018-04-15T23:30:28.594Z,3.60
2018-04-15T23:32:57.809Z,4.30
2018-04-15T23:35:27.069Z,4.00
2018-04-15T23:37:56.298Z,3.77
2018-04-15T23:40:25.517Z,4.20
2018-04-15T23:42:54.709Z,4.27
2018-04-15T23:45:23.917Z,4.40
2018-04-15T23:47:53.177Z,5.37
2018-04-15T23:50:22.405Z,4.93
2018-04-15T23:52:51.611Z,4.70
2018-04-15T23:55:20.895Z,5.50
2018-04-15T23:57:50.092Z,5.13
